sensor_id;sensor_type;location;lat;lon;timestamp;pressure;altitude;pressure_sealevel;temperature;humidity
61554;BME280;47425;51.976;5.326;2023-02-13T00:00:59;103634.13;;;9.70;56.16
61554;BME280;47425;51.976;5.326;2023-02-13T00:03:30;103622.69;;;9.67;55.90
61554;BME280;47425;51.976;5.326;2023-02-13T00:05:59;103624.56;;;9.71;55.90
61554;BME280;47425;51.976;5.326;2023-02-13T00:08:28;103633.59;;;9.82;56.06
61554;BME280;47425;51.976;5.326;2023-02-13T00:10:54;103619.78;;;9.88;55.86
61554;BME280;47425;51.976;5.326;2023-02-13T00:13:24;103619.81;;;9.89;55.70
61554;BME280;47425;51.976;5.326;2023-02-13T00:16:11;103622.19;;;9.80;55.71
61554;BME280;47425;51.976;5.326;2023-02-13T00:18:41;103619.53;;;9.79;55.93
61554;BME280;47425;51.976;5.326;2023-02-13T00:21:28;103622.78;;;9.70;55.99
61554;BME280;47425;51.976;5.326;2023-02-13T00:23:55;103614.75;;;9.64;56.18
61554;BME280;47425;51.976;5.326;2023-02-13T00:26:28;103608.53;;;9.60;56.39
61554;BME280;47425;51.976;5.326;2023-02-13T00:29:15;103601.44;;;9.56;56.43
61554;BME280;47425;51.976;5.326;2023-02-13T00:31:50;103607.50;;;9.53;56.80
61554;BME280;47425;51.976;5.326;2023-02-13T00:34:24;103609.44;;;9.61;56.78
61554;BME280;47425;51.976;5.326;2023-02-13T00:36:58;103607.69;;;9.61;56.54
61554;BME280;47425;51.976;5.326;2023-02-13T00:39:42;103607.69;;;9.61;57.02
61554;BME280;47425;51.976;5.326;2023-02-13T00:42:22;103605.09;;;9.61;56.85
61554;BME280;47425;51.976;5.326;2023-02-13T00:44:51;103601.25;;;9.48;56.82
61554;BME280;47425;51.976;5.326;2023-02-13T00:47:32;103596.97;;;9.52;57.35
61554;BME280;47425;51.976;5.326;2023-02-13T00:50:05;103598.78;;;9.54;56.90
61554;BME280;47425;51.976;5.326;2023-02-13T00:52:37;103599.50;;;9.49;56.76
61554;BME280;47425;51.976;5.326;2023-02-13T00:55:12;103604.78;;;9.50;56.74
61554;BME280;47425;51.976;5.326;2023-02-13T00:57:40;103599.31;;;9.43;56.96
61554;BME280;47425;51.976;5.326;2023-02-13T01:00:10;103598.34;;;9.37;57.05
61554;BME280;47425;51.976;5.326;2023-02-13T01:02:46;103602.31;;;9.55;57.74
61554;BME280;47425;51.976;5.326;2023-02-13T01:05:16;103611.78;;;9.82;57.06
61554;BME280;47425;51.976;5.326;2023-02-13T01:07:48;103606.44;;;9.79;56.57
61554;BME280;47425;51.976;5.326;2023-02-13T01:10:25;103599.56;;;9.82;56.57
61554;BME280;47425;51.976;5.326;2023-02-13T01:13:11;103617.84;;;9.81;56.20
61554;BME280;47425;51.976;5.326;2023-02-13T01:15:47;103603.97;;;9.83;56.46
61554;BME280;47425;51.976;5.326;2023-02-13T01:18:35;103604.06;;;9.88;56.40
61554;BME280;47425;51.976;5.326;2023-02-13T01:24:05;103597.56;;;9.73;56.29
61554;BME280;47425;51.976;5.326;2023-02-13T01:26:35;103587.94;;;9.71;56.38
61554;BME280;47425;51.976;5.326;2023-02-13T01:29:01;103582.88;;;9.79;56.39
61554;BME280;47425;51.976;5.326;2023-02-13T01:31:45;103583.34;;;9.96;56.81
61554;BME280;47425;51.976;5.326;2023-02-13T01:34:47;103591.53;;;10.10;56.02
61554;BME280;47425;51.976;5.326;2023-02-13T01:37:16;103584.63;;;10.12;56.20
61554;BME280;47425;51.976;5.326;2023-02-13T01:39:46;103592.69;;;10.19;56.00
61554;BME280;47425;51.976;5.326;2023-02-13T01:42:20;103586.78;;;10.28;55.89
61554;BME280;47425;51.976;5.326;2023-02-13T01:44:53;103579.00;;;10.31;55.57
61554;BME280;47425;51.976;5.326;2023-02-13T01:47:22;103578.13;;;10.31;55.56
61554;BME280;47425;51.976;5.326;2023-02-13T01:50:15;103581.16;;;10.13;55.49
61554;BME280;47425;51.976;5.326;2023-02-13T01:52:53;103576.47;;;9.99;55.75
61554;BME280;47425;51.976;5.326;2023-02-13T01:55:38;103567.34;;;9.85;56.03
61554;BME280;47425;51.976;5.326;2023-02-13T01:58:14;103573.50;;;9.87;57.03
61554;BME280;47425;51.976;5.326;2023-02-13T02:00:44;103573.84;;;9.99;56.33
61554;BME280;47425;51.976;5.326;2023-02-13T02:03:26;103568.88;;;10.10;56.53
61554;BME280;47425;51.976;5.326;2023-02-13T02:06:26;103571.47;;;10.08;55.80
61554;BME280;47425;51.976;5.326;2023-02-13T02:09:11;103579.09;;;9.99;56.05
61554;BME280;47425;51.976;5.326;2023-02-13T02:11:51;103572.97;;;10.00;56.20
61554;BME280;47425;51.976;5.326;2023-02-13T02:14:41;103564.50;;;9.76;56.52
61554;BME280;47425;51.976;5.326;2023-02-13T02:17:15;103566.38;;;9.81;56.88
61554;BME280;47425;51.976;5.326;2023-02-13T02:19:43;103563.88;;;9.84;56.75
61554;BME280;47425;51.976;5.326;2023-02-13T02:30:35;103567.31;;;9.83;56.43
61554;BME280;47425;51.976;5.326;2023-02-13T02:33:14;103570.22;;;9.94;56.69
61554;BME280;47425;51.976;5.326;2023-02-13T02:35:50;103564.38;;;10.04;56.40
61554;BME280;47425;51.976;5.326;2023-02-13T02:38:27;103567.53;;;10.26;56.34
61554;BME280;47425;51.976;5.326;2023-02-13T02:41:22;103567.94;;;10.41;55.84
61554;BME280;47425;51.976;5.326;2023-02-13T02:44:30;103568.56;;;10.68;55.50
61554;BME280;47425;51.976;5.326;2023-02-13T02:47:07;103564.44;;;10.79;55.43
61554;BME280;47425;51.976;5.326;2023-02-13T02:50:02;103560.41;;;10.55;54.87
61554;BME280;47425;51.976;5.326;2023-02-13T02:52:45;103567.56;;;10.28;55.37
61554;BME280;47425;51.976;5.326;2023-02-13T02:55:30;103555.69;;;10.40;55.75
61554;BME280;47425;51.976;5.326;2023-02-13T02:58:04;103558.50;;;10.50;55.94
61554;BME280;47425;51.976;5.326;2023-02-13T03:00:58;103551.91;;;10.66;55.77
61554;BME280;47425;51.976;5.326;2023-02-13T03:03:50;103560.13;;;10.81;55.41
61554;BME280;47425;51.976;5.326;2023-02-13T03:06:44;103559.31;;;10.84;55.29
61554;BME280;47425;51.976;5.326;2023-02-13T03:09:19;103564.09;;;10.64;54.68
61554;BME280;47425;51.976;5.326;2023-02-13T03:12:05;103562.34;;;10.64;55.40
61554;BME280;47425;51.976;5.326;2023-02-13T03:15:12;103563.00;;;10.94;55.86
61554;BME280;47425;51.976;5.326;2023-02-13T03:17:43;103567.38;;;10.93;54.67
61554;BME280;47425;51.976;5.326;2023-02-13T03:20:31;103563.84;;;10.93;54.76
61554;BME280;47425;51.976;5.326;2023-02-13T03:26:10;103569.81;;;10.84;55.23
61554;BME280;47425;51.976;5.326;2023-02-13T03:29:22;103566.75;;;11.05;54.84
61554;BME280;47425;51.976;5.326;2023-02-13T03:32:14;103565.66;;;10.95;54.38
61554;BME280;47425;51.976;5.326;2023-02-13T03:34:59;103564.03;;;11.00;54.61
61554;BME280;47425;51.976;5.326;2023-02-13T03:37:51;103565.22;;;11.15;54.49
61554;BME280;47425;51.976;5.326;2023-02-13T03:40:22;103570.59;;;11.22;54.08
61554;BME280;47425;51.976;5.326;2023-02-13T03:43:12;103572.78;;;11.44;54.02
61554;BME280;47425;51.976;5.326;2023-02-13T03:45:42;103563.25;;;11.47;53.81
61554;BME280;47425;51.976;5.326;2023-02-13T03:48:35;103570.22;;;11.47;53.56
61554;BME280;47425;51.976;5.326;2023-02-13T03:51:38;103564.75;;;11.36;53.39
61554;BME280;47425;51.976;5.326;2023-02-13T03:54:14;103567.28;;;11.30;53.45
61554;BME280;47425;51.976;5.326;2023-02-13T03:56:43;103569.38;;;11.48;54.52
61554;BME280;47425;51.976;5.326;2023-02-13T03:59:37;103565.66;;;11.84;54.31
61554;BME280;47425;51.976;5.326;2023-02-13T04:02:09;103564.47;;;12.14;53.61
61554;BME280;47425;51.976;5.326;2023-02-13T04:04:39;103569.97;;;12.29;52.59
61554;BME280;47425;51.976;5.326;2023-02-13T04:07:24;103568.91;;;12.18;52.45
61554;BME280;47425;51.976;5.326;2023-02-13T04:10:09;103572.47;;;12.21;53.07
61554;BME280;47425;51.976;5.326;2023-02-13T04:13:37;103568.53;;;12.50;52.93
61554;BME280;47425;51.976;5.326;2023-02-13T04:16:01;103570.88;;;12.88;52.97
61554;BME280;47425;51.976;5.326;2023-02-13T04:18:35;103569.47;;;13.16;52.10
61554;BME280;47425;51.976;5.326;2023-02-13T04:21:12;103570.50;;;13.31;51.77
61554;BME280;47425;51.976;5.326;2023-02-13T04:23:41;103560.63;;;13.08;50.66
61554;BME280;47425;51.976;5.326;2023-02-13T04:26:19;103562.94;;;12.86;50.82
61554;BME280;47425;51.976;5.326;2023-02-13T04:28:46;103563.59;;;12.71;50.81
61554;BME280;47425;51.976;5.326;2023-02-13T04:31:19;103557.72;;;12.30;50.80
61554;BME280;47425;51.976;5.326;2023-02-13T04:33:57;103555.66;;;11.64;51.59
61554;BME280;47425;51.976;5.326;2023-02-13T04:36:27;103564.81;;;11.37;52.57
61554;BME280;47425;51.976;5.326;2023-02-13T04:39:02;103557.19;;;11.07;52.94
61554;BME280;47425;51.976;5.326;2023-02-13T04:41:40;103560.91;;;10.77;53.46
61554;BME280;47425;51.976;5.326;2023-02-13T04:44:15;103563.59;;;10.80;54.33
61554;BME280;47425;51.976;5.326;2023-02-13T04:46:56;103558.38;;;10.82;54.21
61554;BME280;47425;51.976;5.326;2023-02-13T04:49:31;103559.66;;;10.61;55.01
61554;BME280;47425;51.976;5.326;2023-02-13T04:52:31;103551.28;;;10.76;55.38
61554;BME280;47425;51.976;5.326;2023-02-13T04:55:16;103546.88;;;10.75;54.75
61554;BME280;47425;51.976;5.326;2023-02-13T04:57:57;103546.91;;;10.77;54.85
61554;BME280;47425;51.976;5.326;2023-02-13T05:00:27;103545.06;;;10.72;54.58
61554;BME280;47425;51.976;5.326;2023-02-13T05:03:03;103549.19;;;11.02;55.93
61554;BME280;47425;51.976;5.326;2023-02-13T05:05:39;103537.72;;;11.40;54.96
61554;BME280;47425;51.976;5.326;2023-02-13T05:08:12;103535.66;;;11.69;54.34
61554;BME280;47425;51.976;5.326;2023-02-13T05:10:48;103534.31;;;11.93;53.86
61554;BME280;47425;51.976;5.326;2023-02-13T05:13:28;103526.13;;;11.76;53.25
61554;BME280;47425;51.976;5.326;2023-02-13T05:15:56;103519.22;;;11.81;53.99
61554;BME280;47425;51.976;5.326;2023-02-13T05:18:38;103524.03;;;12.04;54.18
61554;BME280;47425;51.976;5.326;2023-02-13T05:21:16;103525.28;;;12.28;53.22
61554;BME280;47425;51.976;5.326;2023-02-13T05:24:20;103518.94;;;12.15;53.43
61554;BME280;47425;51.976;5.326;2023-02-13T05:26:51;103523.91;;;11.98;53.71
61554;BME280;47425;51.976;5.326;2023-02-13T05:29:20;103520.34;;;11.94;53.06
61554;BME280;47425;51.976;5.326;2023-02-13T05:31:50;103520.81;;;11.71;53.40
61554;BME280;47425;51.976;5.326;2023-02-13T05:34:25;103518.91;;;11.63;53.85
61554;BME280;47425;51.976;5.326;2023-02-13T05:37:11;103512.81;;;11.64;54.08
61554;BME280;47425;51.976;5.326;2023-02-13T05:39:43;103525.44;;;11.85;53.97
61554;BME280;47425;51.976;5.326;2023-02-13T05:42:11;103522.38;;;12.09;54.01
61554;BME280;47425;51.976;5.326;2023-02-13T05:44:45;103522.72;;;12.32;53.11
61554;BME280;47425;51.976;5.326;2023-02-13T05:50:08;103519.47;;;12.49;52.78
61554;BME280;47425;51.976;5.326;2023-02-13T05:52:34;103523.00;;;12.51;52.69
61554;BME280;47425;51.976;5.326;2023-02-13T05:55:04;103524.88;;;12.59;52.78
61554;BME280;47425;51.976;5.326;2023-02-13T05:57:31;103526.66;;;12.62;52.32
61554;BME280;47425;51.976;5.326;2023-02-13T05:59:58;103528.25;;;12.49;51.99
61554;BME280;47425;51.976;5.326;2023-02-13T06:05:10;103520.47;;;12.02;52.43
61554;BME280;47425;51.976;5.326;2023-02-13T06:07:45;103530.31;;;12.14;53.21
61554;BME280;47425;51.976;5.326;2023-02-13T06:10:20;103527.94;;;12.29;52.90
61554;BME280;47425;51.976;5.326;2023-02-13T06:12:49;103530.66;;;12.35;52.71
61554;BME280;47425;51.976;5.326;2023-02-13T06:15:40;103524.56;;;12.38;52.38
61554;BME280;47425;51.976;5.326;2023-02-13T06:18:23;103530.63;;;12.34;52.43
61554;BME280;47425;51.976;5.326;2023-02-13T06:20:57;103529.03;;;12.44;52.39
61554;BME280;47425;51.976;5.326;2023-02-13T06:23:23;103535.34;;;12.55;52.38
61554;BME280;47425;51.976;5.326;2023-02-13T06:31:31;103541.22;;;12.37;52.19
61554;BME280;47425;51.976;5.326;2023-02-13T06:34:01;103539.13;;;12.16;51.79
61554;BME280;47425;51.976;5.326;2023-02-13T06:39:22;103537.81;;;11.93;52.74
61554;BME280;47425;51.976;5.326;2023-02-13T06:41:51;103536.25;;;12.02;53.03
61554;BME280;47425;51.976;5.326;2023-02-13T06:44:17;103536.31;;;12.05;52.20
61554;BME280;47425;51.976;5.326;2023-02-13T06:46:51;103535.97;;;11.86;52.42
61554;BME280;47425;51.976;5.326;2023-02-13T06:49:40;103537.53;;;11.77;52.03
61554;BME280;47425;51.976;5.326;2023-02-13T06:52:08;103534.78;;;11.70;52.47
61554;BME280;47425;51.976;5.326;2023-02-13T06:54:50;103536.56;;;11.71;52.69
61554;BME280;47425;51.976;5.326;2023-02-13T06:57:39;103538.59;;;11.86;52.79
61554;BME280;47425;51.976;5.326;2023-02-13T07:00:07;103539.84;;;12.08;52.82
61554;BME280;47425;51.976;5.326;2023-02-13T07:02:44;103542.41;;;12.02;51.81
61554;BME280;47425;51.976;5.326;2023-02-13T07:05:13;103543.06;;;11.92;51.66
61554;BME280;47425;51.976;5.326;2023-02-13T07:07:45;103548.97;;;11.80;52.30
61554;BME280;47425;51.976;5.326;2023-02-13T07:10:15;103543.00;;;11.89;52.51
61554;BME280;47425;51.976;5.326;2023-02-13T07:12:43;103540.66;;;12.04;52.94
61554;BME280;47425;51.976;5.326;2023-02-13T07:15:20;103549.84;;;12.31;52.80
61554;BME280;47425;51.976;5.326;2023-02-13T07:17:53;103552.03;;;12.57;52.20
61554;BME280;47425;51.976;5.326;2023-02-13T07:20:21;103557.31;;;12.60;51.99
61554;BME280;47425;51.976;5.326;2023-02-13T07:22:50;103549.59;;;12.71;51.77
61554;BME280;47425;51.976;5.326;2023-02-13T07:25:19;103546.16;;;12.78;52.00
61554;BME280;47425;51.976;5.326;2023-02-13T07:27:51;103543.56;;;12.80;51.34
61554;BME280;47425;51.976;5.326;2023-02-13T07:30:29;103543.56;;;12.80;51.38
61554;BME280;47425;51.976;5.326;2023-02-13T07:33:02;103547.28;;;12.97;51.77
61554;BME280;47425;51.976;5.326;2023-02-13T07:35:38;103543.06;;;13.08;51.21
61554;BME280;47425;51.976;5.326;2023-02-13T07:38:17;103546.50;;;13.03;50.69
61554;BME280;47425;51.976;5.326;2023-02-13T07:40:50;103545.47;;;12.93;51.07
61554;BME280;47425;51.976;5.326;2023-02-13T07:43:30;103548.34;;;13.12;51.76
61554;BME280;47425;51.976;5.326;2023-02-13T07:45:57;103555.63;;;13.31;50.59
61554;BME280;47425;51.976;5.326;2023-02-13T07:48:24;103557.31;;;13.27;50.83
61554;BME280;47425;51.976;5.326;2023-02-13T07:50:58;103553.25;;;13.53;50.92
61554;BME280;47425;51.976;5.326;2023-02-13T07:53:53;103554.41;;;13.78;49.92
61554;BME280;47425;51.976;5.326;2023-02-13T07:56:22;103556.13;;;13.76;49.70
61554;BME280;47425;51.976;5.326;2023-02-13T07:59:04;103561.56;;;13.91;50.06
61554;BME280;47425;51.976;5.326;2023-02-13T08:01:33;103575.59;;;13.90;49.58
61554;BME280;47425;51.976;5.326;2023-02-13T08:04:03;103573.81;;;13.91;49.70
61554;BME280;47425;51.976;5.326;2023-02-13T08:06:31;103577.38;;;13.95;49.47
61554;BME280;47425;51.976;5.326;2023-02-13T08:09:05;103579.81;;;13.74;49.28
61554;BME280;47425;51.976;5.326;2023-02-13T08:11:59;103582.34;;;13.64;49.77
61554;BME280;47425;51.976;5.326;2023-02-13T08:14:34;103592.94;;;13.70;49.91
61554;BME280;47425;51.976;5.326;2023-02-13T08:17:04;103600.00;;;13.72;49.94
61554;BME280;47425;51.976;5.326;2023-02-13T08:19:42;103595.81;;;13.91;49.38
61554;BME280;47425;51.976;5.326;2023-02-13T08:25:17;103598.66;;;14.16;49.04
61554;BME280;47425;51.976;5.326;2023-02-13T08:28:08;103590.75;;;14.18;48.73
61554;BME280;47425;51.976;5.326;2023-02-13T08:30:40;103598.72;;;14.24;48.84
61554;BME280;47425;51.976;5.326;2023-02-13T08:33:16;103596.00;;;14.13;48.43
61554;BME280;47425;51.976;5.326;2023-02-13T08:35:57;103600.44;;;14.19;49.23
61554;BME280;47425;51.976;5.326;2023-02-13T08:38:27;103593.59;;;14.42;48.45
61554;BME280;47425;51.976;5.326;2023-02-13T08:41:18;103585.75;;;14.52;48.03
61554;BME280;47425;51.976;5.326;2023-02-13T08:43:54;103589.19;;;14.41;48.30
61554;BME280;47425;51.976;5.326;2023-02-13T08:46:28;103595.47;;;14.59;48.02
61554;BME280;47425;51.976;5.326;2023-02-13T08:49:04;103604.47;;;14.83;47.59
61554;BME280;47425;51.976;5.326;2023-02-13T08:51:34;103590.41;;;14.85;47.36
61554;BME280;47425;51.976;5.326;2023-02-13T08:54:01;103586.88;;;14.88;47.21
61554;BME280;47425;51.976;5.326;2023-02-13T08:56:32;103600.97;;;14.91;46.95
61554;BME280;47425;51.976;5.326;2023-02-13T09:01:42;103597.47;;;14.91;46.72
61554;BME280;47425;51.976;5.326;2023-02-13T09:04:16;103600.06;;;14.88;47.01
61554;BME280;47425;51.976;5.326;2023-02-13T09:06:46;103600.09;;;14.91;47.12
61554;BME280;47425;51.976;5.326;2023-02-13T09:09:18;103594.78;;;14.83;47.33
61554;BME280;47425;51.976;5.326;2023-02-13T09:11:48;103602.78;;;14.99;46.70
61554;BME280;47425;51.976;5.326;2023-02-13T09:14:21;103595.75;;;15.04;46.59
61554;BME280;47425;51.976;5.326;2023-02-13T09:16:52;103602.81;;;15.06;47.07
61554;BME280;47425;51.976;5.326;2023-02-13T09:19:30;103604.63;;;15.21;46.62
61554;BME280;47425;51.976;5.326;2023-02-13T09:22:10;103602.91;;;15.26;46.23
61554;BME280;47425;51.976;5.326;2023-02-13T09:24:51;103604.72;;;15.38;46.06
61554;BME280;47425;51.976;5.326;2023-02-13T09:27:24;103600.34;;;15.42;45.74
61554;BME280;47425;51.976;5.326;2023-02-13T09:30:00;103601.22;;;15.38;46.25
61554;BME280;47425;51.976;5.326;2023-02-13T09:32:31;103600.25;;;15.25;45.86
61554;BME280;47425;51.976;5.326;2023-02-13T09:35:09;103598.44;;;15.12;46.54
61554;BME280;47425;51.976;5.326;2023-02-13T09:37:41;103602.03;;;15.29;46.08
61554;BME280;47425;51.976;5.326;2023-02-13T09:40:14;103594.09;;;15.24;46.27
61554;BME280;47425;51.976;5.326;2023-02-13T09:42:59;103602.94;;;15.31;46.00
61554;BME280;47425;51.976;5.326;2023-02-13T09:45:42;103599.47;;;15.49;45.88
61554;BME280;47425;51.976;5.326;2023-02-13T09:48:48;103596.88;;;15.63;45.47
61554;BME280;47425;51.976;5.326;2023-02-13T09:51:25;103603.94;;;15.75;45.40
61554;BME280;47425;51.976;5.326;2023-02-13T09:54:04;103602.25;;;15.94;45.12
61554;BME280;47425;51.976;5.326;2023-02-13T09:56:43;103599.59;;;16.11;44.66
61554;BME280;47425;51.976;5.326;2023-02-13T09:59:34;103599.63;;;16.19;44.15
61554;BME280;47425;51.976;5.326;2023-02-13T10:02:13;103592.59;;;16.32;44.24
61554;BME280;47425;51.976;5.326;2023-02-13T10:04:48;103606.66;;;16.51;43.83
61554;BME280;47425;51.976;5.326;2023-02-13T10:07:38;103593.44;;;16.58;43.64
61554;BME280;47425;51.976;5.326;2023-02-13T10:10:13;103605.78;;;16.38;43.70
61554;BME280;47425;51.976;5.326;2023-02-13T10:12:49;103596.97;;;16.39;44.06
61554;BME280;47425;51.976;5.326;2023-02-13T10:15:25;103605.78;;;16.49;43.98
61554;BME280;47425;51.976;5.326;2023-02-13T10:17:57;103596.94;;;16.54;43.52
61554;BME280;47425;51.976;5.326;2023-02-13T10:20:37;103597.84;;;16.35;43.87
61554;BME280;47425;51.976;5.326;2023-02-13T10:25:58;103593.44;;;16.10;44.52
61554;BME280;47425;51.976;5.326;2023-02-13T10:28:33;103596.09;;;16.29;44.31
61554;BME280;47425;51.976;5.326;2023-02-13T10:31:12;103597.88;;;16.33;43.99
61554;BME280;47425;51.976;5.326;2023-02-13T10:33:50;103593.44;;;16.51;43.87
61554;BME280;47425;51.976;5.326;2023-02-13T10:36:35;103597.81;;;16.73;43.56
61554;BME280;47425;51.976;5.326;2023-02-13T10:39:13;103585.53;;;16.38;43.58
61554;BME280;47425;51.976;5.326;2023-02-13T10:41:49;103593.41;;;15.86;44.12
61554;BME280;47425;51.976;5.326;2023-02-13T10:47:23;103591.69;;;16.20;44.77
61554;BME280;47425;51.976;5.326;2023-02-13T10:50:02;103583.75;;;16.36;44.12
61554;BME280;47425;51.976;5.326;2023-02-13T10:52:38;103585.50;;;16.58;44.07
61554;BME280;47425;51.976;5.326;2023-02-13T10:58:49;103590.72;;;16.77;43.31
61554;BME280;47425;51.976;5.326;2023-02-13T11:01:43;103587.19;;;16.92;43.38
61554;BME280;47425;51.976;5.326;2023-02-13T11:04:37;103580.09;;;17.05;42.95
61554;BME280;47425;51.976;5.326;2023-02-13T11:07:22;103576.56;;;17.04;42.86
61554;BME280;47425;51.976;5.326;2023-02-13T11:09:57;103575.63;;;17.15;42.80
61554;BME280;47425;51.976;5.326;2023-02-13T11:12:31;103576.53;;;17.14;42.77
61554;BME280;47425;51.976;5.326;2023-02-13T11:15:14;103587.06;;;17.26;42.18
61554;BME280;47425;51.976;5.326;2023-02-13T11:18:00;103579.16;;;17.17;42.79
61554;BME280;47425;51.976;5.326;2023-02-13T11:20:36;103568.56;;;17.23;42.67
61554;BME280;47425;51.976;5.326;2023-02-13T11:23:15;103562.31;;;17.33;42.12
61554;BME280;47425;51.976;5.326;2023-02-13T11:25:58;103566.00;;;17.03;42.75
61554;BME280;47425;51.976;5.326;2023-02-13T11:28:33;103561.56;;;17.03;42.65
61554;BME280;47425;51.976;5.326;2023-02-13T11:31:11;103555.41;;;16.92;43.04
61554;BME280;47425;51.976;5.326;2023-02-13T11:33:40;103551.88;;;17.01;42.91
61554;BME280;47425;51.976;5.326;2023-02-13T11:36:08;103548.28;;;17.13;42.85
61554;BME280;47425;51.976;5.326;2023-02-13T11:38:35;103549.09;;;17.25;42.53
61554;BME280;47425;51.976;5.326;2023-02-13T11:41:10;103542.84;;;17.42;42.34
61554;BME280;47425;51.976;5.326;2023-02-13T11:43:43;103538.38;;;17.50;42.12
61554;BME280;47425;51.976;5.326;2023-02-13T11:46:18;103537.47;;;17.50;41.83
61554;BME280;47425;51.976;5.326;2023-02-13T11:49:12;103536.72;;;17.31;42.44
61554;BME280;47425;51.976;5.326;2023-02-13T11:51:59;103538.56;;;17.16;42.44
61554;BME280;47425;51.976;5.326;2023-02-13T11:54:31;103536.81;;;17.14;42.64
61554;BME280;47425;51.976;5.326;2023-02-13T11:57:16;103540.31;;;17.17;42.58
61554;BME280;47425;51.976;5.326;2023-02-13T11:59:49;103542.06;;;17.24;42.23
61554;BME280;47425;51.976;5.326;2023-02-13T12:02:26;103537.72;;;17.05;42.94
61554;BME280;47425;51.976;5.326;2023-02-13T12:07:49;103525.25;;;17.32;42.48
61554;BME280;47425;51.976;5.326;2023-02-13T12:10:20;103523.44;;;17.38;42.32
61554;BME280;47425;51.976;5.326;2023-02-13T12:13:01;103520.69;;;17.55;42.09
61554;BME280;47425;51.976;5.326;2023-02-13T12:15:35;103518.88;;;17.62;41.98
61554;BME280;47425;51.976;5.326;2023-02-13T12:18:09;103517.94;;;17.63;41.56
61554;BME280;47425;51.976;5.326;2023-02-13T12:20:48;103511.75;;;17.69;42.05
61554;BME280;47425;51.976;5.326;2023-02-13T12:23:26;103509.91;;;17.77;41.67
61554;BME280;47425;51.976;5.326;2023-02-13T12:26:11;103502.84;;;17.77;41.60
61554;BME280;47425;51.976;5.326;2023-02-13T12:37:18;103504.56;;;17.85;41.45
61554;BME280;47425;51.976;5.326;2023-02-13T12:40:02;103498.31;;;17.90;41.49
61554;BME280;47425;51.976;5.326;2023-02-13T12:42:46;103503.69;;;17.83;41.37
61554;BME280;47425;51.976;5.326;2023-02-13T12:45:26;103498.66;;;17.47;41.24
61554;BME280;47425;51.976;5.326;2023-02-13T12:48:09;103499.72;;;17.12;42.56
61554;BME280;47425;51.976;5.326;2023-02-13T12:51:08;103491.75;;;17.24;42.68
61554;BME280;47425;51.976;5.326;2023-02-13T12:53:57;103496.00;;;17.45;42.72
61554;BME280;47425;51.976;5.326;2023-02-13T12:59:13;103485.47;;;17.39;42.05
61554;BME280;47425;51.976;5.326;2023-02-13T13:01:58;103482.75;;;17.45;42.35
61554;BME280;47425;51.976;5.326;2023-02-13T13:04:35;103479.19;;;17.48;42.27
61554;BME280;47425;51.976;5.326;2023-02-13T13:07:26;103476.50;;;17.60;41.98
61554;BME280;47425;51.976;5.326;2023-02-13T13:10:09;103476.44;;;17.65;42.24
61554;BME280;47425;51.976;5.326;2023-02-13T13:12:50;103479.91;;;17.73;41.67
61554;BME280;47425;51.976;5.326;2023-02-13T13:15:25;103472.91;;;17.65;41.92
61554;BME280;47425;51.976;5.326;2023-02-13T13:18:06;103471.09;;;17.68;41.71
61554;BME280;47425;51.976;5.326;2023-02-13T13:20:51;103473.97;;;17.37;41.66
61554;BME280;47425;51.976;5.326;2023-02-13T13:23:45;103463.59;;;17.06;42.34
61554;BME280;47425;51.976;5.326;2023-02-13T13:26:21;103453.09;;;16.92;42.79
61554;BME280;47425;51.976;5.326;2023-02-13T13:28:58;103453.06;;;16.94;42.63
61554;BME280;47425;51.976;5.326;2023-02-13T13:31:29;103445.13;;;16.94;43.08
61554;BME280;47425;51.976;5.326;2023-02-13T13:33:59;103444.25;;;16.89;42.98
61554;BME280;47425;51.976;5.326;2023-02-13T13:36:43;103440.69;;;16.99;43.14
61554;BME280;47425;51.976;5.326;2023-02-13T13:39:17;103438.78;;;17.24;42.95
61554;BME280;47425;51.976;5.326;2023-02-13T13:42:12;103439.59;;;17.34;42.62
61554;BME280;47425;51.976;5.326;2023-02-13T13:44:51;103436.81;;;17.51;42.37
61554;BME280;47425;51.976;5.326;2023-02-13T13:47:31;103427.88;;;17.65;42.05
61554;BME280;47425;51.976;5.326;2023-02-13T13:50:03;103435.00;;;17.55;41.90
61554;BME280;47425;51.976;5.326;2023-02-13T13:52:41;103428.91;;;17.43;42.43
61554;BME280;47425;51.976;5.326;2023-02-13T13:58:23;103429.00;;;17.34;42.65
61554;BME280;47425;51.976;5.326;2023-02-13T14:03:40;103421.22;;;17.09;42.73
61554;BME280;47425;51.976;5.326;2023-02-13T14:06:16;103431.72;;;17.19;43.00
61554;BME280;47425;51.976;5.326;2023-02-13T14:11:42;103424.69;;;17.19;42.87
61554;BME280;47425;51.976;5.326;2023-02-13T14:17:03;103423.78;;;17.22;42.89
61554;BME280;47425;51.976;5.326;2023-02-13T14:19:32;103417.47;;;17.40;42.76
61554;BME280;47425;51.976;5.326;2023-02-13T14:24:51;103406.00;;;17.36;42.39
61554;BME280;47425;51.976;5.326;2023-02-13T14:27:23;103406.16;;;17.18;42.81
61554;BME280;47425;51.976;5.326;2023-02-13T14:30:02;103397.25;;;17.28;42.83
61554;BME280;47425;51.976;5.326;2023-02-13T14:32:35;103397.31;;;17.19;42.82
61554;BME280;47425;51.976;5.326;2023-02-13T14:35:14;103392.06;;;17.14;43.16
61554;BME280;47425;51.976;5.326;2023-02-13T14:37:47;103388.47;;;17.20;42.93
61554;BME280;47425;51.976;5.326;2023-02-13T14:40:29;103388.44;;;17.26;42.98
61554;BME280;47425;51.976;5.326;2023-02-13T14:46:15;103389.19;;;17.43;42.41
61554;BME280;47425;51.976;5.326;2023-02-13T14:48:56;103391.91;;;17.34;42.52
61554;BME280;47425;51.976;5.326;2023-02-13T14:51:32;103384.03;;;17.23;42.29
61554;BME280;47425;51.976;5.326;2023-02-13T14:54:04;103389.28;;;17.31;42.77
61554;BME280;47425;51.976;5.326;2023-02-13T14:56:46;103391.88;;;17.40;42.67
61554;BME280;47425;51.976;5.326;2023-02-13T14:59:30;103390.91;;;17.49;42.65